createdAt,value
2022-07-29T00:00:57.451Z,101746.72
2022-07-29T00:04:59.699Z,101747.06
2022-07-29T00:09:01.360Z,101743.72
2022-07-29T00:13:03.301Z,101737.03
2022-07-29T00:17:04.973Z,101739.06
2022-07-29T00:21:06.587Z,101729.00
2022-07-29T00:25:09.115Z,101727.66
2022-07-29T00:29:33.502Z,101719.09
2022-07-29T00:33:32.335Z,101726.72
2022-07-29T00:37:33.954Z,101720.00
2022-07-29T00:41:35.862Z,101722.03
2022-07-29T00:45:37.595Z,101720.72
2022-07-29T00:49:41.514Z,101712.31
2022-07-29T00:53:43.306Z,101713.69
2022-07-29T00:57:46.416Z,101703.31
2022-07-29T01:01:48.134Z,101704.28
2022-07-29T01:05:51.472Z,101700.97
2022-07-29T01:09:55.742Z,101703.78
2022-07-29T01:13:57.949Z,101695.56
2022-07-29T01:18:15.323Z,101699.59
2022-07-29T01:22:28.030Z,101701.44
2022-07-29T01:26:50.001Z,101690.84
2022-07-29T01:30:53.093Z,101691.88
2022-07-29T01:35:26.131Z,101694.09
2022-07-29T01:39:33.419Z,101688.22
2022-07-29T01:44:30.786Z,101692.94
2022-07-29T01:48:35.113Z,101689.41
2022-07-29T01:53:07.550Z,101678.47
2022-07-29T01:57:12.036Z,101682.16
2022-07-29T02:01:14.890Z,101679.66
2022-07-29T02:05:19.671Z,101669.41
2022-07-29T02:09:23.402Z,101667.72
2022-07-29T02:13:28.677Z,101660.66
2022-07-29T02:17:36.112Z,101676.81
2022-07-29T02:21:43.955Z,101660.84
2022-07-29T02:25:50.108Z,101662.72
2022-07-29T02:29:53.138Z,101658.31
2022-07-29T02:33:56.991Z,101646.91
2022-07-29T02:38:17.591Z,101661.38
2022-07-29T02:42:20.620Z,101666.94
2022-07-29T02:46:31.649Z,101654.66
2022-07-29T02:50:38.496Z,101662.09
2022-07-29T02:54:49.963Z,101662.09
2022-07-29T02:58:57.079Z,101645.09
2022-07-29T03:03:02.074Z,101655.88
2022-07-29T03:07:05.893Z,101659.56
2022-07-29T03:11:09.973Z,101654.34
2022-07-29T03:15:12.135Z,101654.72
2022-07-29T03:19:14.318Z,101651.38
2022-07-29T03:23:21.020Z,101645.31
2022-07-29T03:27:22.726Z,101641.97
2022-07-29T03:31:24.409Z,101644.00
2022-07-29T03:35:26.144Z,101643.16
2022-07-29T03:39:32.536Z,101635.25
2022-07-29T03:43:37.520Z,101642.66
2022-07-29T03:47:59.932Z,101637.63
2022-07-29T03:52:02.520Z,101635.28
2022-07-29T03:56:05.402Z,101630.94
2022-07-29T04:00:08.701Z,101638.31
2022-07-29T04:04:10.470Z,101644.72
2022-07-29T04:08:12.057Z,101647.25
2022-07-29T04:12:13.662Z,101648.25
2022-07-29T04:16:15.299Z,101649.28
2022-07-29T04:20:17.062Z,101641.38
2022-07-29T04:24:19.191Z,101646.75
2022-07-29T04:28:21.033Z,101644.72
2022-07-29T04:32:22.693Z,101643.69
2022-07-29T04:36:29.514Z,101648.75
2022-07-29T04:40:33.972Z,101645.88
2022-07-29T04:44:37.225Z,101642.66
2022-07-29T04:48:41.563Z,101647.34
2022-07-29T04:52:43.472Z,101637.53
2022-07-29T04:56:45.229Z,101644.91
2022-07-29T05:00:46.878Z,101643.19
2022-07-29T05:04:49.074Z,101645.19
2022-07-29T05:08:50.676Z,101641.28
2022-07-29T05:12:52.343Z,101640.09
2022-07-29T05:16:57.534Z,101633.53
2022-07-29T05:20:59.156Z,101641.59
2022-07-29T05:25:03.305Z,101639.41
2022-07-29T05:29:08.790Z,101646.94
2022-07-29T05:33:36.426Z,101657.00
2022-07-29T05:37:39.299Z,101650.06
2022-07-29T05:41:41.216Z,101656.13
2022-07-29T05:45:49.668Z,101661.09
2022-07-29T05:49:52.227Z,101664.69
2022-07-29T05:53:53.810Z,101672.00
2022-07-29T05:57:55.426Z,101675.91
2022-07-29T06:01:58.225Z,101674.81
2022-07-29T06:06:00.129Z,101672.44
2022-07-29T06:10:01.767Z,101667.81
2022-07-29T06:14:04.097Z,101668.38
2022-07-29T06:18:10.032Z,101665.38
2022-07-29T06:22:12.715Z,101666.88
2022-07-29T06:26:14.377Z,101666.03
2022-07-29T06:30:16.034Z,101671.16
2022-07-29T06:34:18.034Z,101668.66
2022-07-29T06:38:31.140Z,101678.72
2022-07-29T06:42:35.684Z,101682.50
2022-07-29T06:46:37.567Z,101683.44
2022-07-29T06:50:40.631Z,101687.88
2022-07-29T06:54:48.899Z,101684.63
2022-07-29T06:58:50.518Z,101683.13
2022-07-29T07:02:52.297Z,101688.41
2022-07-29T07:06:54.043Z,101690.63
2022-07-29T07:10:56.189Z,101682.38
2022-07-29T07:14:57.789Z,101701.53
2022-07-29T07:18:59.495Z,101702.97
2022-07-29T07:23:01.180Z,101714.53
2022-07-29T07:27:02.885Z,101715.56
2022-07-29T07:31:04.583Z,101701.06
2022-07-29T07:35:08.529Z,101703.78
2022-07-29T07:39:10.233Z,101700.47
2022-07-29T07:43:11.798Z,101699.66
2022-07-29T07:47:13.775Z,101702.25
2022-07-29T07:51:16.979Z,101705.66
2022-07-29T07:55:19.922Z,101710.50
2022-07-29T07:59:21.753Z,101714.50
2022-07-29T08:03:23.322Z,101711.28
2022-07-29T08:07:24.955Z,101700.69
2022-07-29T08:11:26.595Z,101709.69
2022-07-29T08:15:29.259Z,101710.28
2022-07-29T08:19:31.077Z,101709.63
2022-07-29T08:23:47.272Z,101715.03
2022-07-29T08:27:50.427Z,101704.22
2022-07-29T08:31:52.341Z,101706.75
2022-07-29T08:35:54.167Z,101706.38
2022-07-29T08:39:55.763Z,101705.13
2022-07-29T08:43:57.475Z,101719.75
2022-07-29T08:47:59.605Z,101716.25
2022-07-29T08:52:02.017Z,101721.88
2022-07-29T08:56:03.790Z,101725.69
2022-07-29T09:00:11.316Z,101726.56
2022-07-29T09:04:15.879Z,101717.41
2022-07-29T09:08:18.448Z,101722.84
2022-07-29T09:12:29.041Z,101717.63
2022-07-29T09:17:02.016Z,101715.00
2022-07-29T09:21:23.482Z,101711.06
2022-07-29T09:25:36.071Z,101709.25
2022-07-29T09:29:38.930Z,101708.84
2022-07-29T09:33:43.011Z,101711.38
2022-07-29T09:37:45.460Z,101715.97
2022-07-29T09:41:49.726Z,101709.28
2022-07-29T09:45:51.700Z,101706.81
2022-07-29T09:50:00.776Z,101705.56
2022-07-29T09:54:05.005Z,101715.59
2022-07-29T09:58:19.953Z,101709.31
2022-07-29T10:02:23.472Z,101717.66
2022-07-29T10:06:25.533Z,101717.69
2022-07-29T10:10:35.586Z,101713.28
2022-07-29T10:14:38.500Z,101707.25
2022-07-29T10:18:41.516Z,101701.41
2022-07-29T10:22:53.152Z,101703.50
2022-07-29T10:26:59.603Z,101703.47
2022-07-29T10:31:09.037Z,101706.00
2022-07-29T10:35:29.006Z,101713.97
2022-07-29T10:39:49.896Z,101702.47
2022-07-29T10:43:52.805Z,101703.06
2022-07-29T10:48:07.835Z,101703.47
2022-07-29T10:52:10.603Z,101704.72
2022-07-29T10:56:30.001Z,101705.97
2022-07-29T11:00:32.903Z,101701.81
2022-07-29T11:04:46.906Z,101694.66
2022-07-29T11:09:34.889Z,101699.03
2022-07-29T11:13:47.271Z,101697.97
2022-07-29T11:17:59.511Z,101699.25
2022-07-29T11:22:02.375Z,101695.25
2022-07-29T11:26:26.726Z,101681.25
2022-07-29T11:30:51.457Z,101691.69
2022-07-29T11:35:19.079Z,101689.16
2022-07-29T11:39:36.635Z,101686.41
2022-07-29T11:43:59.165Z,101683.44
2022-07-29T11:48:29.686Z,101685.75
2022-07-29T11:52:23.055Z,101691.16
2022-07-29T11:56:30.630Z,101678.53
2022-07-29T12:00:38.897Z,101694.22
2022-07-29T12:04:53.613Z,101688.50
2022-07-29T12:08:57.659Z,101693.25
2022-07-29T12:12:59.942Z,101694.91
2022-07-29T12:17:01.635Z,101692.34
2022-07-29T12:21:06.659Z,101695.88
2022-07-29T12:25:32.681Z,101699.81
2022-07-29T12:29:32.756Z,101701.25
2022-07-29T12:33:36.270Z,101692.19
2022-07-29T12:37:41.156Z,101695.97
2022-07-29T12:41:45.110Z,101699.69
2022-07-29T12:45:49.359Z,101699.25
2022-07-29T12:49:52.167Z,101693.56
2022-07-29T12:54:16.372Z,101696.41
2022-07-29T12:58:35.245Z,101701.38
2022-07-29T13:02:38.170Z,101697.09
2022-07-29T13:06:45.894Z,101688.75
2022-07-29T13:10:47.933Z,101687.91
2022-07-29T13:14:51.321Z,101685.34
2022-07-29T13:19:12.795Z,101687.06
2022-07-29T13:23:16.356Z,101694.81
2022-07-29T13:27:19.811Z,101687.63
2022-07-29T13:31:21.619Z,101689.59
2022-07-29T13:35:23.259Z,101692.50
2022-07-29T13:39:24.875Z,101694.16
2022-07-29T13:43:26.484Z,101691.59
2022-07-29T13:47:32.076Z,101688.66
2022-07-29T13:51:34.723Z,101678.28
2022-07-29T13:55:36.381Z,101688.16
2022-07-29T13:59:38.356Z,101678.09
2022-07-29T14:03:45.647Z,101687.88
2022-07-29T14:07:47.521Z,101691.16
2022-07-29T14:11:51.132Z,101689.41
2022-07-29T14:15:53.495Z,101676.66
2022-07-29T14:19:55.213Z,101682.31
2022-07-29T14:23:56.951Z,101678.81
2022-07-29T14:27:59.835Z,101681.31
2022-07-29T14:32:02.239Z,101687.22
2022-07-29T14:36:04.335Z,101692.22
2022-07-29T14:40:06.638Z,101686.16
2022-07-29T14:44:08.313Z,101688.44
2022-07-29T14:48:09.986Z,101694.81
2022-07-29T14:52:11.665Z,101693.16
2022-07-29T14:56:35.671Z,101684.03
2022-07-29T15:00:34.961Z,101692.66
2022-07-29T15:04:36.642Z,101694.09
2022-07-29T15:08:38.298Z,101699.34
2022-07-29T15:12:39.888Z,101701.22
2022-07-29T15:16:48.104Z,101702.38
2022-07-29T15:20:50.038Z,101700.81
2022-07-29T15:24:51.646Z,101701.94
2022-07-29T15:28:53.458Z,101693.31
2022-07-29T15:32:55.965Z,101700.03
2022-07-29T15:36:59.166Z,101692.13
2022-07-29T15:41:00.856Z,101701.56
2022-07-29T15:45:03.896Z,101692.13
2022-07-29T15:49:06.981Z,101697.06
2022-07-29T15:53:08.622Z,101696.69
2022-07-29T15:57:10.239Z,101694.41
2022-07-29T16:01:11.974Z,101693.25
2022-07-29T16:05:13.625Z,101700.00
2022-07-29T16:09:16.271Z,101698.41
2022-07-29T16:13:18.919Z,101693.78
2022-07-29T16:17:22.528Z,101709.22
2022-07-29T16:21:24.152Z,101704.69
2022-07-29T16:25:43.967Z,101706.41
2022-07-29T16:29:49.207Z,101705.97
2022-07-29T16:33:54.959Z,101695.88
2022-07-29T16:37:57.989Z,101705.56
2022-07-29T16:42:01.495Z,101707.75
2022-07-29T16:46:05.117Z,101712.16
2022-07-29T16:50:07.444Z,101705.63
2022-07-29T16:54:10.702Z,101715.31
2022-07-29T16:58:12.764Z,101711.16
2022-07-29T17:02:15.137Z,101715.38
2022-07-29T17:06:16.841Z,101709.53
2022-07-29T17:10:18.541Z,101716.13
2022-07-29T17:14:24.078Z,101714.47
2022-07-29T17:18:25.977Z,101718.50
2022-07-29T17:22:27.796Z,101711.41
2022-07-29T17:26:29.572Z,101710.97
2022-07-29T17:30:31.239Z,101715.63
2022-07-29T17:34:32.832Z,101712.28
2022-07-29T17:38:34.481Z,101707.69
2022-07-29T17:42:36.096Z,101717.72
2022-07-29T17:46:37.969Z,101714.50
2022-07-29T17:50:39.860Z,101713.72
2022-07-29T17:54:41.508Z,101719.25
2022-07-29T17:58:43.163Z,101728.72
2022-07-29T18:02:44.770Z,101714.72
2022-07-29T18:06:46.513Z,101731.09
2022-07-29T18:10:48.162Z,101717.41
2022-07-29T18:14:49.795Z,101716.41
2022-07-29T18:18:51.494Z,101721.69
2022-07-29T18:22:53.326Z,101723.81
2022-07-29T18:26:55.074Z,101715.25
2022-07-29T18:30:56.768Z,101718.84
2022-07-29T18:35:02.456Z,101717.41
2022-07-29T18:39:04.198Z,101721.81
2022-07-29T18:43:07.193Z,101722.25
2022-07-29T18:47:08.797Z,101736.47
2022-07-29T18:51:13.602Z,101733.34
2022-07-29T18:55:15.179Z,101741.09
2022-07-29T18:59:19.569Z,101742.34
2022-07-29T19:03:21.192Z,101742.34
2022-07-29T19:07:25.466Z,101744.81
2022-07-29T19:11:27.280Z,101746.69
2022-07-29T19:15:29.208Z,101750.25
2022-07-29T19:19:30.858Z,101765.69
2022-07-29T19:23:32.488Z,101767.31
2022-07-29T19:27:54.255Z,101775.22
2022-07-29T19:31:55.866Z,101774.19
2022-07-29T19:35:57.689Z,101792.75
2022-07-29T19:39:59.416Z,101787.72
2022-07-29T19:44:01.083Z,101796.03
2022-07-29T19:48:05.410Z,101800.59
2022-07-29T19:52:07.067Z,101804.28
2022-07-29T19:56:09.068Z,101812.56
2022-07-29T20:00:12.291Z,101823.38
2022-07-29T20:04:13.919Z,101824.19
2022-07-29T20:08:15.547Z,101828.72
2022-07-29T20:12:17.398Z,101827.00
2022-07-29T20:16:19.126Z,101829.03
